Lebork, Poland

8:07 AM CEST on July 27, 2016 (GMT +0200)
Ketrzyno | | Change Station

Elev 469 ft 54.49 °N, 17.94 °E | Updated 35 seconds ago

Scattered Clouds
Scattered Clouds
71.2 °F
Feels Like 72 °F
N
3.1
Wind Variable Wind from West
Gusts 3.8 mph

Today
High -- | Low -- °F
--% Chance of Precip.
Yesterday
High -- | Low -- °F
Precip. -- in
Pressure 30.09 in
Visibility 6.2 miles
Clouds Scattered Clouds 4100 ft
Heat Index 72 °F
Dew Point 64 °F
Humidity 79%
Rainfall 0.00 in
Snow Depth Not available.
4:51 AM 8:58 PM
Waning Gibbous, 47% visible
METAR EPGD 270600Z 34007KT 9999 SCT041 19/14 Q1019
Pressure 30.09 in
Visibility 6.2 miles
Clouds Scattered Clouds 4100 ft
Heat Index 72 °F
Dew Point 64 °F
Humidity 79%
Rainfall 0.00 in
Snow Depth Not available.
4:51 AM 8:58 PM
Waning Gibbous, 47% visible
METAR EPGD 270600Z 34007KT 9999 SCT041 19/14 Q1019

10-Day Weather Forecast

×

Almanac

Astronomy

Jul. 27, 2016 Rise Set
Actual Time
Civil Twilight
Nautical Twilight
Astronomical Twilight
Moon
Length of Visible Light
Length of Day
Tomorrow will be .
, % of the Moon is Illuminated

Today's Extremes

Country Highs Country Lows

Community

WunderPhotos

Upload Photos

1,927,818 photos uploaded!

WunderBlog® & News

Nearby

Air Quality

  Air Quality AQ Index Pollutant
Not available.

Snow Depth

Station Depth Elevation

Earthquake Activity

City Distance Mag. Time & Date
Minimum magnitude displayed is 2.5.

Coastal Water Temperatures

Place Temperature

Stations

Nearby Weather Stations

Station Location Temp. Windchill Dew Point Humidity Wind Precip. Elev Updated Type